Time;durP1;ratioP1;P1;durP2;ratioP2;P2;SDS_P1;SDS_P2;PMS_P1;PMS_P2;Temp;Humidity;BMP_temperature;BMP_pressure;BME280_temperature;BME280_humidity;BME280_pressure;Samples;Min_cycle;Max_cycle;Signal;HPM_P1;HPM_P2
2023/07/09 00:01:22;;;;;;;1.50;1.00;;;24.80;88.20;;;;;;5025885;28;20464;-83
2023/07/09 00:03:51;;;;;;;1.50;0.90;;;24.80;88.20;;;;;;5024194;28;20456;-84
2023/07/09 00:06:18;;;;;;;1.50;0.87;;;24.80;88.90;;;;;;5024249;28;20518;-83
2023/07/09 00:08:47;;;;;;;1.43;0.90;;;24.70;88.90;;;;;;5024173;28;20792;-83
2023/07/09 00:11:15;;;;;;;1.50;1.00;;;24.70;89.20;;;;;;5024859;28;20460;-84
2023/07/09 00:13:41;;;;;;;1.40;0.90;;;24.60;88.70;;;;;;5021577;28;20537;-83
2023/07/09 00:16:16;;;;;;;1.43;0.90;;;24.60;89.70;;;;;;5023881;28;20482;-84
2023/07/09 00:18:48;;;;;;;1.43;0.90;;;24.50;89.80;;;;;;5024291;28;20501;-83
2023/07/09 00:21:21;;;;;;;1.50;1.10;;;24.50;89.70;;;;;;5023075;28;20490;-84
2023/07/09 00:23:49;;;;;;;1.43;0.90;;;24.40;90.20;;;;;;5028292;28;20464;-84
2023/07/09 00:26:23;;;;;;;1.43;0.90;;;24.40;90.00;;;;;;5028793;28;20981;-84
2023/07/09 00:28:50;;;;;;;1.50;0.87;;;24.30;90.60;;;;;;5023214;28;20460;-83
2023/07/09 00:31:19;;;;;;;1.43;0.80;;;24.30;90.10;;;;;;5025644;28;20594;-83
2023/07/09 00:33:47;;;;;;;1.47;0.90;;;24.20;91.00;;;;;;5031133;28;20460;-84
2023/07/09 00:36:17;;;;;;;1.50;0.90;;;24.20;90.80;;;;;;5030403;28;20468;-84
2023/07/09 00:38:47;;;;;;;1.40;0.90;;;24.20;90.90;;;;;;5027729;28;20456;-83
2023/07/09 00:41:18;;;;;;;1.47;0.90;;;24.20;90.40;;;;;;5023882;28;20456;-83
2023/07/09 00:43:47;;;;;;;1.47;0.87;;;24.20;90.50;;;;;;5024632;28;20464;-83
2023/07/09 00:46:48;;;;;;;1.47;0.90;;;24.10;90.20;;;;;;5021934;28;20506;-84
2023/07/09 00:49:32;;;;;;;1.47;0.90;;;24.10;90.70;;;;;;5021945;28;20466;-84
2023/07/09 00:52:02;;;;;;;1.43;0.87;;;24.10;91.20;;;;;;5019642;28;20459;-84
2023/07/09 00:54:36;;;;;;;1.50;0.90;;;24.10;90.80;;;;;;5020317;28;20551;-84
2023/07/09 00:57:07;;;;;;;1.50;0.90;;;24.10;90.50;;;;;;5022328;28;20467;-84
2023/07/09 00:59:37;;;;;;;1.43;0.90;;;24.10;90.70;;;;;;5027206;28;20855;-84
2023/07/09 01:02:07;;;;;;;1.50;0.90;;;24.00;91.00;;;;;;5019680;28;20455;-83
2023/07/09 01:04:39;;;;;;;1.47;0.90;;;24.00;91.70;;;;;;5020132;28;20456;-83
2023/07/09 01:07:07;;;;;;;1.50;1.10;;;23.90;92.00;;;;;;5020025;28;20496;-83
2023/07/09 01:09:41;;;;;;;1.47;0.90;;;23.90;92.00;;;;;;5027292;28;20513;-84
2023/07/09 01:12:13;;;;;;;1.47;0.90;;;23.90;91.30;;;;;;5021006;28;20483;-84
2023/07/09 01:14:40;;;;;;;1.50;0.90;;;23.90;91.50;;;;;;5025087;28;20558;-84
2023/07/09 01:17:11;;;;;;;1.43;0.90;;;23.90;91.30;;;;;;5022767;28;20554;-84
2023/07/09 01:19:44;;;;;;;1.47;0.90;;;23.90;91.70;;;;;;5023842;28;20465;-84
2023/07/09 01:22:18;;;;;;;1.50;0.90;;;23.90;91.70;;;;;;5023983;28;20463;-83
2023/07/09 01:24:54;;;;;;;1.50;0.90;;;23.80;91.10;;;;;;5025821;28;20924;-84
2023/07/09 01:27:26;;;;;;;1.47;0.90;;;23.90;91.70;;;;;;5021990;28;20961;-83
2023/07/09 01:29:54;;;;;;;1.47;0.90;;;23.80;92.10;;;;;;5020183;28;20456;-83
2023/07/09 01:32:22;;;;;;;1.47;0.93;;;23.80;92.60;;;;;;5028085;28;20470;-83
2023/07/09 01:34:52;;;;;;;1.43;0.90;;;23.80;91.00;;;;;;5014619;28;20480;-83
2023/07/09 01:37:26;;;;;;;1.50;0.87;;;23.80;90.90;;;;;;5021728;28;20560;-83
2023/07/09 01:39:55;;;;;;;1.43;0.90;;;23.80;92.10;;;;;;5019186;28;20464;-83
2023/07/09 01:42:24;;;;;;;1.50;1.00;;;23.70;92.10;;;;;;5022215;28;20468;-83
2023/07/09 01:44:54;;;;;;;1.47;0.87;;;23.70;91.80;;;;;;5016496;28;20484;-83
2023/07/09 01:47:22;;;;;;;1.43;0.90;;;23.70;92.20;;;;;;5012314;28;20576;-83
2023/07/09 01:49:50;;;;;;;1.47;0.90;;;23.70;91.60;;;;;;5013105;28;21199;-83
2023/07/09 01:52:22;;;;;;;1.50;0.90;;;23.70;92.40;;;;;;5009915;28;20456;-83
2023/07/09 01:54:55;;;;;;;1.50;1.10;;;23.60;92.60;;;;;;5018494;28;20495;-83
2023/07/09 01:57:23;;;;;;;1.50;0.90;;;23.60;92.10;;;;;;5014951;28;20488;-83
2023/07/09 01:59:52;;;;;;;1.47;0.90;;;23.60;92.30;;;;;;5009652;28;20525;-83
2023/07/09 02:02:19;;;;;;;1.43;0.90;;;23.50;92.20;;;;;;5025237;28;20494;-83
2023/07/09 02:04:51;;;;;;;1.60;1.47;;;23.50;92.20;;;;;;5021940;28;20490;-82
2023/07/09 02:07:20;;;;;;;1.47;0.90;;;23.50;92.50;;;;;;5020568;28;20624;-83
2023/07/09 02:09:51;;;;;;;1.50;0.90;;;23.50;92.60;;;;;;5018611;28;21049;-83
2023/07/09 02:12:21;;;;;;;1.47;0.90;;;23.40;93.10;;;;;;5014763;28;20464;-83
2023/07/09 02:14:49;;;;;;;1.43;0.90;;;23.40;92.70;;;;;;5010854;28;21006;-82
2023/07/09 02:17:16;;;;;;;1.50;0.90;;;23.40;93.00;;;;;;5015374;28;20459;-83
2023/07/09 02:19:47;;;;;;;1.47;0.90;;;23.40;93.10;;;;;;5024828;28;20532;-83
2023/07/09 02:22:14;;;;;;;1.50;0.90;;;23.30;93.50;;;;;;5018801;28;20501;-83
2023/07/09 02:24:41;;;;;;;1.47;0.90;;;23.30;94.00;;;;;;5016039;28;20583;-83
2023/07/09 02:27:11;;;;;;;1.47;0.90;;;23.30;94.00;;;;;;5017712;28;20809;-82
2023/07/09 02:29:51;;;;;;;1.50;0.90;;;23.20;93.40;;;;;;5020228;28;20464;-83
2023/07/09 02:32:25;;;;;;;1.47;0.90;;;23.20;94.60;;;;;;5021436;28;20534;-83
2023/07/09 02:34:56;;;;;;;1.43;0.90;;;23.20;94.80;;;;;;5024368;28;20486;-83
2023/07/09 02:37:34;;;;;;;1.50;0.90;;;23.20;95.00;;;;;;5022353;28;20941;-83
2023/07/09 02:40:01;;;;;;;1.50;0.90;;;23.10;94.70;;;;;;5024444;28;20555;-83
2023/07/09 02:42:32;;;;;;;1.40;0.90;;;23.10;95.40;;;;;;5022991;28;20459;-83
2023/07/09 02:45:03;;;;;;;1.47;0.90;;;23.10;94.60;;;;;;5017345;28;20827;-83
2023/07/09 02:47:30;;;;;;;1.43;0.90;;;23.10;95.70;;;;;;5027325;28;20514;-83
2023/07/09 02:49:56;;;;;;;1.40;0.90;;;23.00;96.40;;;;;;5016517;28;20468;-83
2023/07/09 02:52:23;;;;;;;1.50;0.90;;;23.00;96.00;;;;;;5018329;28;20551;-83
2023/07/09 02:54:52;;;;;;;1.47;0.90;;;22.90;96.20;;;;;;5017798;28;20527;-83
2023/07/09 02:57:20;;;;;;;1.50;0.90;;;22.90;95.90;;;;;;5020494;28;20495;-82
2023/07/09 02:59:48;;;;;;;1.50;0.90;;;22.90;96.90;;;;;;5016710;28;20855;-83
2023/07/09 03:02:17;;;;;;;1.50;0.90;;;22.80;97.30;;;;;;5014946;28;20542;-83
2023/07/09 03:04:45;;;;;;;1.50;0.90;;;22.80;97.80;;;;;;5016186;28;20478;-83
2023/07/09 03:07:15;;;;;;;1.47;0.90;;;22.70;97.70;;;;;;5018203;28;21073;-83
2023/07/09 03:09:42;;;;;;;1.50;0.90;;;22.70;98.20;;;;;;5020772;28;20460;-83
2023/07/09 03:12:17;;;;;;;1.50;0.90;;;22.60;97.20;;;;;;5023963;28;20549;-83
2023/07/09 03:14:43;;;;;;;1.50;0.90;;;22.70;97.80;;;;;;5016590;28;20568;-83
2023/07/09 03:17:11;;;;;;;1.47;0.90;;;22.70;97.70;;;;;;5023857;28;20546;-83
2023/07/09 03:19:39;;;;;;;1.50;0.90;;;22.70;96.90;;;;;;5018767;28;20555;-83
2023/07/09 03:22:14;;;;;;;1.50;0.90;;;22.70;97.10;;;;;;5017241;28;20478;-83
2023/07/09 03:24:41;;;;;;;1.43;0.90;;;22.70;96.40;;;;;;5021951;28;20489;-83
2023/07/09 03:27:08;;;;;;;1.47;0.90;;;22.70;96.80;;;;;;5024353;28;20491;-83
2023/07/09 03:29:43;;;;;;;1.50;0.90;;;22.80;96.60;;;;;;5022175;28;20460;-83
2023/07/09 03:32:10;;;;;;;1.50;1.00;;;22.80;96.50;;;;;;5014365;28;21125;-84
2023/07/09 03:34:39;;;;;;;1.43;0.90;;;22.80;96.50;;;;;;5015698;28;20493;-83
2023/07/09 03:37:07;;;;;;;1.50;0.90;;;22.80;96.70;;;;;;5016068;28;21010;-83
2023/07/09 03:39:33;;;;;;;1.50;0.90;;;22.80;97.00;;;;;;5018831;28;20463;-83
2023/07/09 03:42:00;;;;;;;1.47;0.90;;;22.80;96.90;;;;;;5016558;28;20473;-83
2023/07/09 03:44:27;;;;;;;1.43;0.90;;;22.80;96.90;;;;;;5013052;28;20471;-83
2023/07/09 03:46:54;;;;;;;1.47;0.90;;;22.80;96.30;;;;;;5019091;28;20488;-83
2023/07/09 03:49:23;;;;;;;1.50;0.90;;;22.80;96.00;;;;;;5021826;28;20490;-83
2023/07/09 03:51:51;;;;;;;1.47;0.90;;;22.80;96.80;;;;;;5022602;28;20550;-83
2023/07/09 03:54:19;;;;;;;1.50;0.90;;;22.80;96.70;;;;;;5019737;28;20455;-83
2023/07/09 03:56:47;;;;;;;1.43;0.90;;;22.80;96.80;;;;;;5010087;28;20474;-84
2023/07/09 03:59:14;;;;;;;1.50;1.20;;;22.80;97.30;;;;;;5020977;28;20778;-83
2023/07/09 04:01:45;;;;;;;1.47;0.90;;;22.80;97.40;;;;;;5021011;28;20460;-83
2023/07/09 04:04:13;;;;;;;1.50;0.90;;;22.80;96.80;;;;;;5022838;28;20545;-84
2023/07/09 04:06:40;;;;;;;1.43;0.90;;;22.80;97.20;;;;;;5019887;28;20493;-83
2023/07/09 04:09:08;;;;;;;1.60;1.10;;;22.80;96.50;;;;;;5022502;28;21025;-84
2023/07/09 04:11:38;;;;;;;1.40;0.90;;;22.80;97.30;;;;;;5019169;28;20485;-84
2023/07/09 04:14:07;;;;;;;1.50;1.00;;;22.80;97.70;;;;;;5008021;28;20496;-84
2023/07/09 04:16:34;;;;;;;1.50;0.90;;;22.80;97.80;;;;;;5018621;28;20526;-83
2023/07/09 04:19:02;;;;;;;1.43;0.90;;;22.80;97.30;;;;;;5024457;28;20546;-83
2023/07/09 04:21:48;;;;;;;1.47;0.90;;;22.80;97.10;;;;;;5013086;28;20978;-83
2023/07/09 04:24:23;;;;;;;1.47;0.90;;;22.80;97.00;;;;;;5009076;28;20547;-83
2023/07/09 04:26:56;;;;;;;1.47;0.90;;;22.90;97.70;;;;;;5017730;28;21019;-83
2023/07/09 04:29:28;;;;;;;1.47;0.90;;;22.90;97.00;;;;;;5024107;28;20554;-84
2023/07/09 04:31:57;;;;;;;1.43;0.90;;;22.90;96.60;;;;;;5022696;28;20479;-83
2023/07/09 04:34:24;;;;;;;4.27;1.47;;;22.90;96.50;;;;;;5017054;28;20470;-83
2023/07/09 04:36:52;;;;;;;1.43;0.90;;;23.00;96.30;;;;;;5023022;28;20464;-83
2023/07/09 04:39:22;;;;;;;1.50;0.90;;;23.00;96.50;;;;;;5023791;28;20957;-83
2023/07/09 04:41:57;;;;;;;1.40;0.90;;;23.10;96.40;;;;;;5017182;28;20467;-83
2023/07/09 04:44:26;;;;;;;1.47;0.90;;;23.10;96.50;;;;;;5014057;28;20478;-83
2023/07/09 04:46:53;;;;;;;1.50;0.90;;;23.20;96.60;;;;;;5022388;28;20946;-83
2023/07/09 04:49:24;;;;;;;1.47;0.90;;;23.20;96.20;;;;;;5022059;28;20558;-83
2023/07/09 04:51:50;;;;;;;1.50;0.87;;;23.30;96.40;;;;;;5020788;28;20974;-83
2023/07/09 04:54:17;;;;;;;1.40;0.90;;;23.40;95.60;;;;;;5024955;28;20558;-83
2023/07/09 04:56:48;;;;;;;1.47;0.90;;;23.40;95.80;;;;;;5021162;28;20492;-83
2023/07/09 04:59:15;;;;;;;1.50;0.90;;;23.50;95.90;;;;;;5029730;28;20490;-84
2023/07/09 05:01:45;;;;;;;1.50;0.90;;;23.60;95.60;;;;;;5021822;28;20471;-83
2023/07/09 05:04:13;;;;;;;1.40;0.90;;;23.70;95.70;;;;;;5019421;28;20479;-83
2023/07/09 05:06:43;;;;;;;1.47;0.90;;;23.80;94.90;;;;;;5002386;28;21327;-83
2023/07/09 05:09:10;;;;;;;1.43;0.90;;;23.80;94.40;;;;;;5008440;28;20514;-82
2023/07/09 05:11:40;;;;;;;1.50;0.90;;;23.90;94.30;;;;;;5014280;28;20494;-83
2023/07/09 05:14:08;;;;;;;1.43;0.90;;;24.00;93.80;;;;;;5015811;28;21107;-82
2023/07/09 05:16:35;;;;;;;1.47;0.90;;;24.10;93.70;;;;;;5012247;28;21042;-84
2023/07/09 05:19:02;;;;;;;1.47;0.90;;;24.20;93.60;;;;;;5014212;28;20492;-82
2023/07/09 05:21:29;;;;;;;1.47;0.90;;;24.30;93.30;;;;;;5015394;28;20531;-83
2023/07/09 05:23:56;;;;;;;1.50;0.90;;;24.40;93.20;;;;;;5010497;28;20564;-82
2023/07/09 05:26:23;;;;;;;1.47;0.90;;;24.50;93.10;;;;;;5010918;28;20500;-82
2023/07/09 05:28:51;;;;;;;1.70;1.40;;;24.70;92.40;;;;;;5015706;28;20530;-82
2023/07/09 05:31:22;;;;;;;1.47;0.90;;;24.80;92.80;;;;;;5009930;28;20890;-83
2023/07/09 05:33:49;;;;;;;1.50;0.90;;;24.80;92.00;;;;;;5006844;28;20459;-82
2023/07/09 05:36:18;;;;;;;1.47;0.90;;;24.80;92.00;;;;;;5013136;28;20511;-83
2023/07/09 05:38:45;;;;;;;1.47;0.80;;;24.90;92.20;;;;;;5013829;28;20829;-83
2023/07/09 05:41:14;;;;;;;1.47;0.90;;;25.00;91.40;;;;;;5011280;28;20495;-82
2023/07/09 05:43:41;;;;;;;1.50;1.10;;;25.10;91.00;;;;;;5008611;28;20479;-82
2023/07/09 05:46:12;;;;;;;1.43;0.90;;;25.20;90.90;;;;;;5006886;28;20915;-82
2023/07/09 05:48:43;;;;;;;1.47;0.87;;;25.30;90.70;;;;;;5009998;28;20548;-82
2023/07/09 05:51:18;;;;;;;1.47;0.90;;;25.40;90.00;;;;;;5009255;28;20495;-82
2023/07/09 05:53:54;;;;;;;1.50;0.90;;;25.50;90.00;;;;;;5012703;28;21017;-82
2023/07/09 05:56:23;;;;;;;1.47;0.90;;;25.50;89.50;;;;;;5003493;28;20483;-82
2023/07/09 05:58:50;;;;;;;1.50;0.90;;;25.40;89.70;;;;;;5007872;28;20467;-82
2023/07/09 06:01:17;;;;;;;1.47;0.90;;;25.40;90.00;;;;;;5007954;28;20479;-83
2023/07/09 06:03:48;;;;;;;1.50;0.90;;;25.50;89.90;;;;;;5008008;28;20467;-82
2023/07/09 06:06:17;;;;;;;1.50;0.90;;;25.60;89.60;;;;;;5008562;28;20582;-82
2023/07/09 06:08:49;;;;;;;1.50;1.00;;;25.70;89.20;;;;;;5009174;28;20500;-82
2023/07/09 06:11:17;;;;;;;1.47;0.90;;;25.70;89.00;;;;;;5009476;28;20464;-82
2023/07/09 06:13:48;;;;;;;1.50;0.90;;;25.70;89.10;;;;;;5008309;28;20472;-82
2023/07/09 06:16:15;;;;;;;1.50;0.90;;;25.70;89.10;;;;;;5006069;28;20487;-82
2023/07/09 06:18:42;;;;;;;1.47;0.80;;;25.80;88.90;;;;;;5010737;28;20572;-83
2023/07/09 06:24:43;;;;;;;1.50;0.80;;;26.00;88.60;;;;;;4934897;28;21009;-83
2023/07/09 06:27:15;;;;;;;1.47;0.83;;;26.10;88.30;;;;;;5011792;28;20883;-82
2023/07/09 06:29:42;;;;;;;1.47;0.83;;;26.30;87.90;;;;;;5009088;28;20531;-83
2023/07/09 06:32:09;;;;;;;1.47;0.90;;;26.40;87.70;;;;;;5008866;28;20463;-83
2023/07/09 06:34:42;;;;;;;1.50;0.80;;;26.60;88.00;;;;;;5007580;28;20559;-83
2023/07/09 06:37:10;;;;;;;1.50;0.80;;;26.80;86.60;;;;;;5008815;28;21040;-83
2023/07/09 06:39:37;;;;;;;1.50;0.90;;;26.80;86.40;;;;;;5011470;28;20495;-83
2023/07/09 06:42:15;;;;;;;1.47;0.80;;;26.90;87.20;;;;;;5010786;28;20455;-83
2023/07/09 06:44:47;;;;;;;1.43;0.90;;;27.10;86.60;;;;;;5014325;28;20944;-83
2023/07/09 06:47:14;;;;;;;1.50;0.80;;;27.20;86.70;;;;;;5021003;28;20585;-83
2023/07/09 06:49:45;;;;;;;1.50;0.87;;;27.50;86.00;;;;;;5022007;28;20490;-84
2023/07/09 06:52:12;;;;;;;1.47;0.83;;;27.70;85.20;;;;;;5020869;28;20470;-84
2023/07/09 06:54:44;;;;;;;1.43;0.80;;;27.90;84.40;;;;;;5016660;28;21025;-84
2023/07/09 06:57:12;;;;;;;1.43;0.90;;;28.00;84.70;;;;;;5019086;28;20721;-84
2023/07/09 06:59:42;;;;;;;1.50;1.10;;;28.30;83.30;;;;;;5015371;28;20531;-84
2023/07/09 07:02:09;;;;;;;1.50;1.00;;;28.40;83.40;;;;;;5014405;28;21023;-84
2023/07/09 07:04:36;;;;;;;1.47;0.80;;;28.60;83.10;;;;;;5011151;28;20455;-84
2023/07/09 07:07:07;;;;;;;1.50;0.80;;;28.80;82.40;;;;;;5011854;28;20488;-84
2023/07/09 07:09:36;;;;;;;1.50;0.90;;;28.90;81.70;;;;;;5012051;28;20566;-84
2023/07/09 07:12:03;;;;;;;1.50;0.80;;;29.10;80.00;;;;;;5013304;28;20466;-84
2023/07/09 07:14:32;;;;;;;1.47;0.80;;;29.20;81.00;;;;;;5011349;28;21029;-85
2023/07/09 07:16:59;;;;;;;1.47;0.80;;;29.40;80.60;;;;;;5012270;28;20554;-84
2023/07/09 07:19:28;;;;;;;1.50;1.20;;;29.50;79.70;;;;;;5010773;28;20476;-84
2023/07/09 07:22:37;;;;;;;1.50;0.97;;;29.70;79.20;;;;;;5012234;28;20920;-84
2023/07/09 07:25:17;;;;;;;1.70;1.20;;;29.70;79.70;;;;;;4989056;28;20484;-84
2023/07/09 07:27:47;;;;;;;1.60;1.00;;;29.90;79.40;;;;;;5014295;28;21056;-84
2023/07/09 07:30:22;;;;;;;1.47;0.80;;;30.10;79.50;;;;;;5015708;28;20473;-84
2023/07/09 07:32:49;;;;;;;1.50;0.90;;;30.20;78.00;;;;;;5015821;28;20491;-84
2023/07/09 07:35:19;;;;;;;1.47;0.80;;;30.40;78.30;;;;;;5012754;28;21052;-84
2023/07/09 07:37:46;;;;;;;1.47;0.80;;;30.50;77.30;;;;;;5013017;28;20451;-84
2023/07/09 07:40:13;;;;;;;1.50;1.00;;;30.50;77.10;;;;;;5016238;28;20523;-83
2023/07/09 07:42:44;;;;;;;1.43;0.80;;;30.60;77.00;;;;;;5014106;28;20478;-84
2023/07/09 07:45:11;;;;;;;1.47;0.80;;;30.70;77.20;;;;;;5007175;28;20481;-84
2023/07/09 07:47:40;;;;;;;1.50;0.80;;;30.80;77.10;;;;;;5013874;28;20499;-84
2023/07/09 07:50:09;;;;;;;1.40;0.80;;;30.90;76.60;;;;;;5013104;28;20502;-83
2023/07/09 07:52:39;;;;;;;1.47;0.80;;;31.10;76.30;;;;;;5013418;28;20463;-84
2023/07/09 07:55:10;;;;;;;1.60;1.20;;;31.30;76.20;;;;;;5004271;28;20522;-85
2023/07/09 07:57:37;;;;;;;1.47;0.80;;;31.40;75.30;;;;;;5006243;28;20490;-84
2023/07/09 08:00:14;;;;;;;1.40;0.80;;;31.60;75.80;;;;;;5008357;28;20490;-84
2023/07/09 08:02:42;;;;;;;1.40;0.80;;;31.80;74.20;;;;;;5011120;28;20474;-85
2023/07/09 08:05:25;;;;;;;2.20;1.00;;;31.80;74.40;;;;;;5012633;28;20510;-84
2023/07/09 08:10:42;;;;;;;1.43;0.80;;;32.30;74.00;;;;;;5015931;28;20467;-84
2023/07/09 08:13:13;;;;;;;1.43;0.80;;;32.50;73.70;;;;;;5015605;28;20459;-84
2023/07/09 08:15:40;;;;;;;1.47;0.87;;;32.80;74.40;;;;;;5013540;28;20225;-85
2023/07/09 08:18:12;;;;;;;1.50;0.80;;;33.10;73.60;;;;;;5014617;28;20209;-84
2023/07/09 08:26:52;;;;;;;1.43;0.80;;;33.80;69.90;;;;;;5370838;23;20228;-84
2023/07/09 08:29:22;;;;;;;1.50;0.80;;;33.80;69.70;;;;;;5031783;28;20212;-84
2023/07/09 08:32:15;;;;;;;1.50;1.00;;;33.80;70.30;;;;;;5030544;28;20232;-83
2023/07/09 08:35:18;;;;;;;1.47;0.80;;;33.80;69.50;;;;;;5074621;23;20424;-84
2023/07/09 08:41:16;;;;;;;1.50;1.10;;;33.90;69.60;;;;;;4952672;28;20205;-84
2023/07/09 08:43:56;;;;;;;1.40;0.80;;;34.00;69.80;;;;;;5031044;28;20383;-84
2023/07/09 08:46:30;;;;;;;1.48;0.90;;;34.10;68.90;;;;;;5029634;28;20729;-85
2023/07/09 08:51:50;;;;;;;1.50;0.90;;;34.20;68.80;;;;;;5029348;28;20260;-85
2023/07/09 08:54:26;;;;;;;1.42;0.80;;;34.40;68.80;;;;;;5032946;28;20204;-85
2023/07/09 08:57:06;;;;;;;1.45;0.80;;;34.60;69.00;;;;;;5031771;28;20255;-85
2023/07/09 08:59:34;;;;;;;1.42;0.80;;;34.80;68.60;;;;;;5034457;28;20203;-85
2023/07/09 09:02:04;;;;;;;2.50;1.17;;;35.00;67.60;;;;;;5031673;28;20201;-85
2023/07/09 09:04:36;;;;;;;1.42;0.88;;;35.10;68.50;;;;;;5029171;28;20204;-85
2023/07/09 09:07:36;;;;;;;1.45;0.80;;;35.10;66.20;;;;;;5030933;28;20212;-85
2023/07/09 09:10:05;;;;;;;1.42;0.80;;;35.10;67.50;;;;;;5030665;28;20316;-85
2023/07/09 09:12:58;;;;;;;1.45;0.80;;;35.30;66.70;;;;;;5033019;28;20271;-85
2023/07/09 09:15:39;;;;;;;1.45;0.80;;;35.40;67.10;;;;;;5030697;28;20227;-85
2023/07/09 09:18:21;;;;;;;1.40;0.80;;;35.40;66.60;;;;;;5029642;28;20292;-84
2023/07/09 09:24:56;;;;;;;1.45;0.80;;;35.50;66.00;;;;;;5028102;28;20212;-83
2023/07/09 09:27:23;;;;;;;1.40;0.80;;;35.50;66.00;;;;;;5027581;28;20231;-82
2023/07/09 09:29:50;;;;;;;1.40;0.80;;;35.80;65.30;;;;;;5030268;28;20299;-83
2023/07/09 09:32:25;;;;;;;1.42;0.80;;;36.10;66.30;;;;;;5029216;28;20239;-83
2023/07/09 09:34:53;;;;;;;1.40;0.80;;;36.30;63.90;;;;;;5024263;28;20239;-84
2023/07/09 09:37:27;;;;;;;1.42;0.90;;;36.40;63.80;;;;;;5025029;28;20297;-83
2023/07/09 09:39:56;;;;;;;1.45;0.80;;;36.40;64.10;;;;;;5020343;28;20207;-82
2023/07/09 09:42:25;;;;;;;1.40;0.93;;;36.30;64.10;;;;;;5026357;28;20642;-83
2023/07/09 09:44:56;;;;;;;1.48;0.80;;;36.30;64.00;;;;;;5026071;28;20235;-82
2023/07/09 09:47:27;;;;;;;1.40;0.80;;;36.40;64.80;;;;;;5029994;28;20301;-82
2023/07/09 09:49:57;;;;;;;1.40;0.80;;;36.60;64.60;;;;;;5030363;28;20270;-82
2023/07/09 09:52:34;;;;;;;1.40;0.80;;;36.90;63.80;;;;;;5023426;28;20214;-81
2023/07/09 09:55:12;;;;;;;1.40;0.80;;;37.10;63.20;;;;;;5025235;28;20298;-83
2023/07/09 09:58:02;;;;;;;1.40;0.80;;;37.20;62.30;;;;;;5025510;28;20200;-85
2023/07/09 10:00:33;;;;;;;1.45;0.90;;;37.20;64.20;;;;;;5023611;28;20213;-82
2023/07/09 10:03:01;;;;;;;1.40;0.80;;;37.30;61.90;;;;;;5027008;28;20212;-83
2023/07/09 10:05:33;;;;;;;2.05;1.52;;;37.40;63.00;;;;;;5025787;28;20395;-83
2023/07/09 10:08:07;;;;;;;1.40;0.80;;;37.50;61.30;;;;;;5025210;28;20232;-82
2023/07/09 10:10:39;;;;;;;1.40;0.80;;;37.40;62.40;;;;;;5023023;28;20291;-82
2023/07/09 10:13:22;;;;;;;1.40;0.80;;;37.50;62.10;;;;;;5023861;28;20208;-83
2023/07/09 10:16:04;;;;;;;1.40;0.80;;;37.50;62.20;;;;;;5023399;28;20220;-83
2023/07/09 10:18:46;;;;;;;1.40;0.80;;;37.40;62.30;;;;;;5022541;28;20208;-83
2023/07/09 10:21:20;;;;;;;1.40;0.80;;;37.50;60.80;;;;;;5027217;28;20211;-83
2023/07/09 10:30:14;;;;;;;1.40;0.80;;;37.80;61.40;;;;;;5019891;28;20406;-85
2023/07/09 10:33:06;;;;;;;1.40;0.80;;;38.00;60.60;;;;;;5022439;28;20214;-84
2023/07/09 10:35:52;;;;;;;1.40;0.80;;;38.30;61.10;;;;;;5011239;28;20228;-84
2023/07/09 10:38:40;;;;;;;2.50;1.85;;;38.50;60.60;;;;;;4999063;28;20231;-83
2023/07/09 10:41:28;;;;;;;1.40;0.90;;;38.80;59.50;;;;;;5002723;28;20213;-83
2023/07/09 10:44:06;;;;;;;1.40;0.85;;;38.80;58.90;;;;;;4995262;28;20205;-84
2023/07/09 10:46:36;;;;;;;1.40;0.80;;;38.80;59.30;;;;;;4997690;28;20224;-83
2023/07/09 10:49:10;;;;;;;1.40;0.90;;;39.00;60.50;;;;;;4998177;28;20604;-83
2023/07/09 10:51:43;;;;;;;1.40;0.80;;;39.10;59.10;;;;;;4999745;28;20828;-84
2023/07/09 10:54:21;;;;;;;1.40;0.80;;;39.20;58.80;;;;;;4995275;28;20209;-83
2023/07/09 10:56:57;;;;;;;1.40;0.80;;;39.20;58.30;;;;;;5000070;28;20201;-83
2023/07/09 10:59:32;;;;;;;1.50;1.20;;;39.20;58.60;;;;;;5001681;28;20215;-83
2023/07/09 11:02:10;;;;;;;1.40;0.80;;;39.40;59.20;;;;;;5001583;28;20212;-82
2023/07/09 11:04:41;;;;;;;1.40;0.90;;;39.40;58.70;;;;;;5002098;28;20240;-84
2023/07/09 11:07:29;;;;;;;1.40;0.80;;;39.40;58.60;;;;;;5001944;28;20319;-83
2023/07/09 11:09:59;;;;;;;1.40;0.80;;;39.40;58.00;;;;;;5003192;28;20212;-85
2023/07/09 11:12:37;;;;;;;1.40;0.80;;;39.40;59.00;;;;;;5004133;28;20212;-84
2023/07/09 11:15:17;;;;;;;1.40;0.80;;;39.40;58.10;;;;;;5006298;28;20295;-84
2023/07/09 11:17:47;;;;;;;1.38;0.80;;;39.60;58.50;;;;;;5004654;28;20212;-83
2023/07/09 11:20:20;;;;;;;1.40;0.80;;;39.90;58.10;;;;;;5002339;28;20213;-83
2023/07/09 11:26:25;;;;;;;1.38;0.80;;;40.20;56.70;;;;;;4988892;23;20235;-84
2023/07/09 11:28:56;;;;;;;1.38;0.80;;;40.40;57.90;;;;;;5024612;28;20233;-84
2023/07/09 11:31:47;;;;;;;1.38;0.80;;;40.60;56.40;;;;;;5024246;28;20733;-83
2023/07/09 11:34:34;;;;;;;1.38;0.80;;;40.40;55.70;;;;;;5021979;28;20303;-83
2023/07/09 11:37:02;;;;;;;1.35;0.80;;;40.30;56.20;;;;;;5004815;28;20224;-83
2023/07/09 11:39:32;;;;;;;1.40;0.98;;;40.40;56.80;;;;;;5001632;28;20205;-83
2023/07/09 11:42:00;;;;;;;1.38;0.80;;;40.60;56.60;;;;;;5000706;28;20213;-84
2023/07/09 11:44:29;;;;;;;1.38;0.80;;;40.80;55.40;;;;;;5000770;28;20211;-84
2023/07/09 11:47:20;;;;;;;1.40;1.08;;;41.00;54.50;;;;;;5000082;28;20208;-83
2023/07/09 11:49:53;;;;;;;1.38;0.80;;;41.00;55.90;;;;;;5004760;28;20289;-84
2023/07/09 11:52:29;;;;;;;1.55;1.00;;;41.00;55.50;;;;;;5003727;28;20208;-84
2023/07/09 11:55:02;;;;;;;1.38;0.80;;;41.20;55.30;;;;;;4999175;28;20793;-85
2023/07/09 11:57:42;;;;;;;1.40;0.80;;;41.10;54.80;;;;;;5000042;28;20232;-84
2023/07/09 12:00:11;;;;;;;1.40;0.80;;;41.00;54.20;;;;;;4999178;28;20204;-85
2023/07/09 12:02:42;;;;;;;1.38;0.80;;;40.90;54.60;;;;;;5000488;28;20211;-84
2023/07/09 12:05:11;;;;;;;1.40;0.80;;;40.60;54.80;;;;;;4998317;28;20268;-84
2023/07/09 12:07:38;;;;;;;1.40;0.80;;;40.40;55.40;;;;;;4996546;28;20213;-84
2023/07/09 12:10:23;;;;;;;1.40;0.80;;;40.50;57.10;;;;;;5001325;28;20388;-84
2023/07/09 12:12:54;;;;;;;1.40;0.80;;;40.60;54.20;;;;;;4999845;28;20222;-83
2023/07/09 12:15:24;;;;;;;1.40;0.80;;;40.50;55.60;;;;;;4997495;28;20237;-85
2023/07/09 12:17:57;;;;;;;1.30;0.80;;;40.60;55.20;;;;;;4998195;28;20304;-83
2023/07/09 12:24:08;;;;;;;1.35;0.80;;;40.60;54.80;;;;;;5003000;28;20676;-81
2023/07/09 12:26:41;;;;;;;1.38;0.80;;;40.80;54.90;;;;;;4999092;28;20311;-83
2023/07/09 12:29:15;;;;;;;1.40;0.80;;;41.00;54.50;;;;;;4996845;28;20228;-83
2023/07/09 12:31:42;;;;;;;1.35;0.80;;;41.10;54.90;;;;;;4996213;28;20208;-83
2023/07/09 12:34:15;;;;;;;1.38;0.80;;;41.20;55.00;;;;;;5006650;28;20231;-83
2023/07/09 12:36:47;;;;;;;1.40;1.10;;;41.30;53.50;;;;;;4999568;28;20586;-83
2023/07/09 12:42:04;;;;;;;1.35;0.80;;;41.60;53.00;;;;;;4997395;28;20340;-83
2023/07/09 12:44:36;;;;;;;1.38;0.80;;;41.60;52.20;;;;;;5003282;28;20260;-83
2023/07/09 12:47:08;;;;;;;1.35;0.88;;;41.40;51.10;;;;;;5005828;28;20209;-84
2023/07/09 12:49:42;;;;;;;1.35;0.80;;;41.10;52.20;;;;;;5004044;28;20609;-82
2023/07/09 12:52:14;;;;;;;1.33;0.80;;;40.80;52.90;;;;;;5001072;28;20280;-82
2023/07/09 12:55:02;;;;;;;1.38;0.80;;;40.50;53.10;;;;;;5003378;28;20225;-83
2023/07/09 12:57:33;;;;;;;1.40;0.80;;;40.10;52.90;;;;;;4964149;28;20205;-83
2023/07/09 13:03:20;;;;;;;1.40;0.95;;;39.30;54.10;;;;;;4983258;28;20205;-83
2023/07/09 13:06:27;;;;;;;1.40;0.80;;;38.90;54.50;;;;;;5003773;28;20716;-83
2023/07/09 13:08:58;;;;;;;1.40;0.80;;;38.60;55.10;;;;;;5009002;28;20209;-82
2023/07/09 13:11:25;;;;;;;1.40;0.80;;;38.40;55.50;;;;;;5009110;28;20299;-83
2023/07/09 13:14:05;;;;;;;1.40;0.80;;;38.20;55.40;;;;;;5006678;28;20212;-82
2023/07/09 13:16:44;;;;;;;1.40;0.80;;;38.10;56.00;;;;;;5008768;28;20232;-82
2023/07/09 13:19:55;;;;;;;1.40;0.80;;;37.90;56.30;;;;;;5008160;28;20229;-82
2023/07/09 13:26:29;;;;;;;1.40;0.80;;;37.20;56.20;;;;;;5082356;23;20254;-82
2023/07/09 13:28:58;;;;;;;1.40;0.80;;;36.90;56.70;;;;;;5015642;28;20204;-82
2023/07/09 13:31:25;;;;;;;1.40;0.80;;;36.70;57.10;;;;;;5015461;28;20202;-83
2023/07/09 13:33:55;;;;;;;1.42;0.93;;;36.60;58.40;;;;;;5016024;28;20218;-82
2023/07/09 13:36:22;;;;;;;1.48;0.90;;;36.50;58.70;;;;;;5012138;28;20737;-82
2023/07/09 13:38:49;;;;;;;1.40;0.80;;;36.40;58.40;;;;;;5012637;28;20231;-83
2023/07/09 13:41:18;;;;;;;1.40;0.80;;;36.30;59.00;;;;;;5014988;28;20212;-81
2023/07/09 13:43:48;;;;;;;1.42;0.80;;;36.20;58.70;;;;;;5015144;28;20209;-82
2023/07/09 13:46:15;;;;;;;1.45;0.80;;;36.10;58.70;;;;;;5014811;28;20334;-81
2023/07/09 13:48:44;;;;;;;1.40;0.90;;;35.90;59.80;;;;;;5006121;28;20242;-80
2023/07/09 13:51:16;;;;;;;2.10;1.90;;;35.80;61.20;;;;;;5010183;28;20219;-81
2023/07/09 13:53:43;;;;;;;1.43;0.80;;;35.30;66.70;;;;;;5015064;28;20212;-81
2023/07/09 13:56:09;;;;;;;1.60;1.10;;;34.70;68.70;;;;;;5014515;28;20282;-81
2023/07/09 13:58:36;;;;;;;1.47;0.80;;;33.90;71.60;;;;;;5016175;28;20210;-79